createdAt,value
2023-01-12T00:02:02.066Z,16.70
2023-01-12T00:04:31.064Z,21.20
2023-01-12T00:06:59.184Z,23.42
2023-01-12T00:09:27.195Z,22.10
2023-01-12T00:11:56.408Z,23.63
2023-01-12T00:14:24.205Z,22.23
2023-01-12T00:16:52.034Z,18.58
2023-01-12T00:19:21.746Z,20.27
2023-01-12T00:21:56.371Z,24.13
2023-01-12T00:24:26.242Z,18.88
2023-01-12T00:26:56.918Z,21.07
2023-01-12T00:29:25.962Z,23.88
2023-01-12T00:31:54.365Z,21.85
2023-01-12T00:34:22.927Z,22.27
2023-01-12T00:36:50.751Z,23.55
2023-01-12T00:39:19.143Z,17.57
2023-01-12T00:42:04.690Z,23.95
2023-01-12T00:44:51.326Z,18.25
2023-01-12T00:47:20.088Z,20.67
2023-01-12T00:49:48.162Z,20.00
2023-01-12T00:52:29.935Z,23.23
2023-01-12T00:54:59.147Z,20.20
2023-01-12T00:57:28.124Z,23.67
2023-01-12T00:59:59.342Z,22.55
2023-01-12T01:02:28.094Z,26.45
2023-01-12T01:04:56.198Z,26.53
2023-01-12T01:07:24.033Z,27.95
2023-01-12T01:09:52.338Z,31.77
2023-01-12T01:12:20.815Z,29.13
2023-01-12T01:14:49.383Z,35.25
2023-01-12T01:17:18.591Z,23.83
2023-01-12T01:19:46.484Z,29.67
2023-01-12T01:22:14.333Z,25.02
2023-01-12T01:24:42.723Z,27.23
2023-01-12T01:27:10.721Z,25.10
2023-01-12T01:29:38.444Z,23.80
2023-01-12T01:32:06.419Z,19.83
2023-01-12T01:34:35.787Z,37.35
2023-01-12T01:37:03.735Z,24.33
2023-01-12T01:39:31.559Z,27.45
2023-01-12T01:42:00.997Z,31.60
2023-01-12T01:44:51.241Z,30.70
2023-01-12T01:47:27.740Z,29.48
2023-01-12T01:50:00.342Z,34.83
2023-01-12T01:52:31.073Z,27.60
2023-01-12T01:55:02.896Z,31.07
2023-01-12T01:57:34.498Z,33.53
2023-01-12T02:00:04.097Z,30.25
2023-01-12T02:02:33.545Z,31.33
2023-01-12T02:05:03.302Z,33.92
2023-01-12T02:07:31.326Z,41.27
2023-01-12T02:09:59.333Z,42.28
2023-01-12T02:12:45.034Z,38.28
2023-01-12T02:15:30.416Z,37.47
2023-01-12T02:18:13.635Z,36.92
2023-01-12T02:20:59.269Z,39.70
2023-01-12T02:23:59.978Z,37.92
2023-01-12T02:27:08.836Z,48.10
2023-01-12T02:30:03.534Z,44.45
2023-01-12T02:32:41.614Z,34.03
2023-01-12T02:35:19.122Z,44.73
2023-01-12T02:37:54.842Z,40.67
2023-01-12T02:40:26.685Z,29.27
2023-01-12T02:43:02.697Z,45.58
2023-01-12T02:45:39.710Z,39.20
2023-01-12T02:48:13.688Z,39.17
2023-01-12T02:50:47.631Z,37.10
2023-01-12T02:53:19.693Z,30.42
2023-01-12T02:55:48.626Z,36.72
2023-01-12T02:58:19.727Z,30.48
2023-01-12T03:00:50.016Z,31.87
2023-01-12T03:03:20.406Z,29.25
2023-01-12T03:05:48.577Z,29.70
2023-01-12T03:08:21.160Z,27.98
2023-01-12T03:11:00.245Z,25.35
2023-01-12T03:13:29.791Z,32.43
2023-01-12T03:15:59.856Z,25.58
2023-01-12T03:18:36.218Z,24.10
2023-01-12T03:21:09.961Z,21.10
2023-01-12T03:23:44.306Z,25.77
2023-01-12T03:26:14.680Z,15.93
2023-01-12T03:28:47.718Z,23.65
2023-01-12T03:31:15.588Z,21.08
2023-01-12T03:33:46.501Z,19.45
2023-01-12T03:36:20.145Z,22.13
2023-01-12T03:38:59.985Z,24.47
2023-01-12T03:41:37.797Z,24.45
2023-01-12T03:44:07.798Z,18.92
2023-01-12T03:46:40.529Z,27.38
2023-01-12T03:49:18.277Z,29.10
2023-01-12T03:51:49.508Z,23.73
2023-01-12T03:54:19.760Z,25.83
2023-01-12T03:56:48.518Z,20.17
2023-01-12T03:59:16.856Z,21.67
2023-01-12T04:01:44.849Z,14.52
2023-01-12T04:04:14.215Z,15.70
2023-01-12T04:06:42.073Z,11.48
2023-01-12T04:09:09.836Z,15.18
2023-01-12T04:11:55.034Z,14.88
2023-01-12T04:14:22.972Z,22.90
2023-01-12T04:16:50.676Z,14.17
2023-01-12T04:19:19.855Z,10.85
2023-01-12T04:22:05.245Z,8.77
2023-01-12T04:24:33.174Z,7.80
2023-01-12T04:27:01.011Z,9.73
2023-01-12T04:29:28.793Z,8.80
2023-01-12T04:31:56.622Z,7.22
2023-01-12T04:34:25.926Z,4.82
2023-01-12T04:36:53.751Z,3.75
2023-01-12T04:39:21.604Z,6.05
2023-01-12T04:41:49.423Z,4.57
2023-01-12T04:44:17.273Z,5.13
2023-01-12T04:46:45.002Z,5.10
2023-01-12T04:49:12.787Z,7.85
2023-01-12T04:51:42.110Z,8.43
2023-01-12T04:54:10.507Z,5.57
2023-01-12T04:56:38.360Z,11.02
2023-01-12T04:59:08.811Z,12.32
2023-01-12T05:01:38.983Z,13.25
2023-01-12T05:04:08.081Z,14.30
2023-01-12T05:06:36.128Z,12.20
2023-01-12T05:09:22.898Z,10.57
2023-01-12T05:11:50.728Z,16.60
2023-01-12T05:14:18.540Z,15.45
2023-01-12T05:16:46.385Z,18.25
2023-01-12T05:19:14.349Z,22.67
2023-01-12T05:21:42.158Z,29.58
2023-01-12T05:24:11.444Z,23.98
2023-01-12T05:26:39.238Z,32.38
2023-01-12T05:29:07.013Z,38.83
2023-01-12T05:31:35.892Z,37.27
2023-01-12T05:34:03.936Z,44.33
2023-01-12T05:36:31.812Z,40.60
2023-01-12T05:39:00.069Z,32.28
2023-01-12T05:41:29.256Z,37.42
2023-01-12T05:43:56.302Z,39.40
2023-01-12T05:46:25.811Z,39.03
2023-01-12T05:48:54.748Z,45.10
2023-01-12T05:51:23.236Z,41.35
2023-01-12T05:53:51.513Z,40.75
2023-01-12T05:56:21.377Z,34.90
2023-01-12T05:58:54.481Z,41.05
2023-01-12T06:01:22.838Z,35.63
2023-01-12T06:03:51.591Z,51.78
2023-01-12T06:06:20.082Z,40.47
2023-01-12T06:08:47.924Z,51.00
2023-01-12T06:11:30.139Z,43.33
2023-01-12T06:13:59.767Z,34.97
2023-01-12T06:16:28.504Z,44.15
2023-01-12T06:18:56.732Z,37.03
2023-01-12T06:21:26.762Z,35.77
2023-01-12T06:23:54.663Z,41.35
2023-01-12T06:26:22.493Z,39.60
2023-01-12T06:28:50.271Z,31.85
2023-01-12T06:31:20.036Z,34.60
2023-01-12T06:33:48.028Z,37.30
2023-01-12T06:36:15.956Z,31.83
2023-01-12T06:38:44.166Z,36.58
2023-01-12T06:41:33.351Z,35.22
2023-01-12T06:44:01.533Z,39.97
2023-01-12T06:46:30.767Z,35.77
2023-01-12T06:48:59.538Z,41.28
2023-01-12T06:51:28.181Z,31.60
2023-01-12T06:53:56.149Z,43.53
2023-01-12T06:56:24.294Z,34.03
2023-01-12T06:58:52.120Z,33.93
2023-01-12T07:01:20.298Z,30.98
2023-01-12T07:03:49.568Z,28.83
2023-01-12T07:06:17.372Z,34.83
2023-01-12T07:08:45.152Z,39.53
2023-01-12T07:11:15.037Z,32.97
2023-01-12T07:13:42.914Z,27.67
2023-01-12T07:16:10.861Z,30.58
2023-01-12T07:18:38.780Z,30.13
2023-01-12T07:21:09.668Z,29.08
2023-01-12T07:23:38.413Z,29.53
2023-01-12T07:26:06.633Z,26.13
2023-01-12T07:28:34.858Z,25.88
2023-01-12T07:31:04.339Z,26.83
2023-01-12T07:33:34.353Z,29.15
2023-01-12T07:36:03.703Z,24.23
2023-01-12T07:38:33.011Z,25.63
2023-01-12T07:41:01.318Z,26.63
2023-01-12T07:43:28.505Z,30.98
2023-01-12T07:45:57.879Z,28.48
2023-01-12T07:48:27.498Z,26.70
2023-01-12T07:50:56.574Z,23.48
2023-01-12T07:53:25.048Z,27.20
2023-01-12T07:55:54.199Z,23.13
2023-01-12T07:58:22.061Z,32.47
2023-01-12T08:00:49.873Z,24.43
2023-01-12T08:03:17.705Z,24.77
2023-01-12T08:05:45.671Z,22.13
2023-01-12T08:08:13.556Z,26.35
2023-01-12T08:10:43.502Z,30.00
2023-01-12T08:13:12.701Z,32.07
2023-01-12T08:15:45.283Z,24.23
2023-01-12T08:18:19.510Z,25.52
2023-01-12T08:20:48.883Z,24.23
2023-01-12T08:23:20.556Z,27.77
2023-01-12T08:25:56.064Z,24.67
2023-01-12T08:28:28.691Z,20.52
2023-01-12T08:30:56.634Z,26.48
2023-01-12T08:33:24.744Z,27.58
2023-01-12T08:35:52.627Z,30.63
2023-01-12T08:38:20.465Z,16.30
2023-01-12T08:41:05.745Z,23.92
2023-01-12T08:43:53.362Z,20.77
2023-01-12T08:46:21.360Z,23.95
2023-01-12T08:48:49.220Z,23.83
2023-01-12T08:51:17.100Z,23.50
2023-01-12T08:53:45.048Z,24.67
2023-01-12T08:56:12.928Z,24.05
2023-01-12T08:58:43.062Z,22.95
2023-01-12T09:01:13.259Z,21.98
2023-01-12T09:03:44.263Z,28.13
2023-01-12T09:06:13.785Z,21.67
2023-01-12T09:08:41.732Z,22.98
2023-01-12T09:11:11.092Z,21.45
2023-01-12T09:13:39.259Z,32.92
2023-01-12T09:16:13.147Z,29.20
2023-01-12T09:18:41.668Z,29.10
2023-01-12T09:21:11.605Z,22.70
2023-01-12T09:23:40.004Z,27.10
2023-01-12T09:26:10.040Z,21.00
2023-01-12T09:28:38.456Z,24.93
2023-01-12T09:31:09.995Z,30.08
2023-01-12T09:33:39.000Z,24.08
2023-01-12T09:36:08.801Z,27.58
2023-01-12T09:38:37.635Z,35.15
2023-01-12T09:41:11.952Z,25.20
2023-01-12T09:43:59.129Z,35.90
2023-01-12T09:46:46.045Z,22.75
2023-01-12T09:49:14.984Z,24.90
2023-01-12T09:51:49.962Z,28.27
2023-01-12T09:54:18.199Z,31.03
2023-01-12T09:56:52.356Z,29.77
2023-01-12T09:59:32.166Z,23.42
2023-01-12T10:02:01.638Z,24.38
2023-01-12T10:04:29.824Z,34.83
2023-01-12T10:06:57.696Z,20.73
2023-01-12T10:09:26.705Z,24.67
2023-01-12T10:12:03.070Z,30.20
2023-01-12T10:15:02.476Z,22.40
2023-01-12T10:17:50.667Z,29.45
2023-01-12T10:20:28.098Z,19.43
2023-01-12T10:23:02.608Z,22.13
2023-01-12T10:25:37.549Z,24.90
2023-01-12T10:28:12.922Z,24.00
2023-01-12T10:30:42.375Z,21.13
2023-01-12T10:33:14.601Z,29.10
2023-01-12T10:35:57.876Z,25.40
2023-01-12T10:38:29.304Z,24.55
2023-01-12T10:41:06.378Z,27.67
2023-01-12T10:43:34.934Z,22.98
2023-01-12T10:46:06.114Z,23.67
2023-01-12T10:48:35.527Z,25.50
2023-01-12T10:51:05.653Z,25.58
2023-01-12T10:53:42.356Z,29.65
2023-01-12T10:56:21.716Z,23.70
2023-01-12T10:58:58.988Z,22.57
2023-01-12T11:01:27.087Z,21.92
2023-01-12T11:04:05.446Z,26.23
2023-01-12T11:06:33.363Z,27.65
2023-01-12T11:09:19.045Z,23.65
2023-01-12T11:11:47.002Z,29.83
2023-01-12T11:14:26.696Z,27.75
2023-01-12T11:16:54.730Z,31.90
2023-01-12T11:19:30.710Z,29.45
2023-01-12T11:22:03.141Z,31.30
2023-01-12T11:24:36.216Z,31.40
2023-01-12T11:27:15.017Z,28.23
2023-01-12T11:29:54.449Z,28.75
2023-01-12T11:32:29.796Z,28.85
2023-01-12T11:35:05.057Z,29.35
2023-01-12T11:37:36.810Z,32.73
2023-01-12T11:40:10.032Z,22.95
2023-01-12T11:42:55.316Z,19.38
2023-01-12T11:45:26.939Z,34.97
2023-01-12T11:48:01.066Z,25.63
2023-01-12T11:50:33.537Z,26.43
2023-01-12T11:53:05.077Z,25.80
2023-01-12T11:55:55.110Z,25.75
2023-01-12T11:58:32.422Z,27.30
2023-01-12T12:01:09.286Z,28.02
2023-01-12T12:03:59.532Z,31.43
2023-01-12T12:07:04.337Z,25.88
2023-01-12T12:09:45.612Z,35.40
2023-01-12T12:12:23.458Z,26.48
2023-01-12T12:15:04.582Z,31.63
2023-01-12T12:17:42.319Z,33.17
2023-01-12T12:20:18.171Z,29.00
2023-01-12T12:22:58.399Z,32.35
2023-01-12T12:25:32.460Z,31.58
2023-01-12T12:28:13.956Z,31.08
2023-01-12T12:30:55.656Z,28.03
2023-01-12T12:33:45.367Z,25.40
2023-01-12T12:36:25.187Z,28.42
2023-01-12T12:39:25.759Z,30.02
2023-01-12T12:42:18.637Z,27.38
2023-01-12T12:45:16.207Z,31.30
2023-01-12T12:48:04.734Z,25.35
2023-01-12T12:50:36.415Z,28.40
2023-01-12T12:53:14.489Z,35.08
2023-01-12T12:55:44.910Z,25.02
2023-01-12T12:58:45.438Z,27.87
2023-01-12T13:01:55.225Z,22.25
2023-01-12T13:04:58.686Z,27.50
2023-01-12T13:07:27.477Z,31.70
2023-01-12T13:10:10.434Z,20.90
2023-01-12T13:12:41.945Z,26.63
2023-01-12T13:15:19.873Z,25.52
2023-01-12T13:17:49.752Z,35.00
2023-01-12T13:20:36.172Z,36.72
2023-01-12T13:23:08.320Z,32.97
2023-01-12T13:25:57.630Z,29.10
2023-01-12T13:28:27.299Z,32.55
2023-01-12T13:30:55.832Z,34.20
2023-01-12T13:33:29.024Z,35.45
2023-01-12T13:36:10.381Z,33.00
2023-01-12T13:39:06.901Z,31.67
2023-01-12T13:41:54.054Z,29.30
2023-01-12T13:44:29.753Z,31.17
2023-01-12T13:47:05.077Z,35.72
2023-01-12T13:49:34.555Z,33.42
2023-01-12T13:52:05.455Z,29.33
2023-01-12T13:54:34.501Z,32.17
2023-01-12T13:57:04.487Z,30.48
2023-01-12T13:59:34.885Z,30.08
2023-01-12T14:02:03.475Z,26.95
2023-01-12T14:04:59.135Z,28.00
2023-01-12T14:07:45.974Z,35.05
2023-01-12T14:10:27.129Z,38.58
2023-01-12T14:13:11.312Z,31.92
2023-01-12T14:15:59.267Z,30.75
2023-01-12T14:18:28.693Z,24.23
2023-01-12T14:20:58.065Z,24.60
2023-01-12T14:23:30.366Z,28.17
2023-01-12T14:26:16.663Z,23.52
2023-01-12T14:28:46.759Z,32.15
2023-01-12T14:31:25.665Z,30.47
2023-01-12T14:33:55.851Z,31.17
2023-01-12T14:36:27.000Z,26.65
2023-01-12T14:38:55.768Z,25.67
2023-01-12T14:41:43.017Z,19.98
2023-01-12T14:44:37.291Z,21.37
2023-01-12T14:47:06.989Z,14.48
2023-01-12T14:49:36.181Z,20.02
2023-01-12T14:52:23.333Z,21.67
2023-01-12T14:54:52.094Z,25.02
2023-01-12T14:57:23.181Z,27.93
2023-01-12T14:59:51.674Z,24.92
2023-01-12T15:02:32.613Z,28.77
2023-01-12T15:05:04.099Z,25.17
2023-01-12T15:07:34.825Z,20.63
2023-01-12T15:10:05.353Z,22.50
2023-01-12T15:12:57.942Z,15.35
2023-01-12T15:15:27.669Z,19.83
2023-01-12T15:18:14.839Z,13.98
2023-01-12T15:21:03.213Z,13.02
2023-01-12T15:23:51.639Z,13.27
2023-01-12T15:26:20.645Z,19.85
2023-01-12T15:28:49.171Z,17.73
2023-01-12T15:31:26.769Z,12.38
2023-01-12T15:33:57.522Z,22.95
2023-01-12T15:36:25.771Z,20.10
2023-01-12T15:39:02.875Z,19.15
2023-01-12T15:41:50.476Z,31.50
2023-01-12T15:44:27.514Z,26.65
2023-01-12T15:46:55.847Z,16.40
2023-01-12T15:49:24.963Z,14.00
2023-01-12T15:51:52.932Z,19.63
2023-01-12T15:54:21.893Z,17.25
2023-01-12T15:56:49.926Z,19.45
2023-01-12T15:59:17.755Z,17.88
2023-01-12T16:01:48.936Z,13.93
2023-01-12T16:04:42.276Z,15.90
2023-01-12T16:07:07.893Z,13.32
2023-01-12T16:09:35.922Z,19.02
2023-01-12T16:12:03.826Z,17.92
2023-01-12T16:14:31.677Z,19.77
2023-01-12T16:16:59.572Z,26.85
2023-01-12T16:19:28.300Z,22.63
2023-01-12T16:21:56.415Z,28.25
2023-01-12T16:24:26.839Z,27.25
2023-01-12T16:26:54.855Z,25.70
2023-01-12T16:29:23.796Z,25.60
2023-01-12T16:31:51.851Z,19.98
2023-01-12T16:34:22.634Z,18.50
2023-01-12T16:36:50.837Z,19.05
2023-01-12T16:39:18.583Z,31.97
2023-01-12T16:41:48.211Z,20.02
2023-01-12T16:44:16.132Z,19.50
2023-01-12T16:46:44.073Z,22.50
2023-01-12T16:49:11.805Z,20.27
2023-01-12T16:51:39.620Z,29.37
2023-01-12T16:54:07.418Z,24.73
2023-01-12T16:56:35.297Z,19.63
2023-01-12T16:59:04.674Z,31.63
2023-01-12T17:01:32.827Z,21.30
2023-01-12T17:04:02.438Z,22.67
2023-01-12T17:06:31.202Z,34.67
2023-01-12T17:09:02.027Z,24.30
2023-01-12T17:11:30.785Z,32.70
2023-01-12T17:13:59.158Z,24.75
2023-01-12T17:16:29.427Z,22.07
2023-01-12T17:18:57.347Z,23.70
2023-01-12T17:21:25.501Z,25.00
2023-01-12T17:23:53.455Z,29.15
2023-01-12T17:26:21.574Z,29.88
2023-01-12T17:28:49.450Z,35.97
2023-01-12T17:31:20.607Z,34.20
2023-01-12T17:33:51.779Z,36.67
2023-01-12T17:36:19.837Z,23.23
2023-01-12T17:38:47.746Z,25.02
2023-01-12T17:41:31.300Z,26.47
2023-01-12T17:43:59.694Z,25.33
2023-01-12T17:46:27.612Z,30.52
2023-01-12T17:48:58.727Z,31.05
2023-01-12T17:51:26.556Z,19.42
2023-01-12T17:53:54.664Z,28.17
2023-01-12T17:56:22.929Z,19.00
2023-01-12T17:58:51.092Z,28.38
2023-01-12T18:01:19.445Z,22.15
2023-01-12T18:03:47.344Z,25.90
2023-01-12T18:06:25.767Z,24.17
2023-01-12T18:08:56.163Z,24.83
2023-01-12T18:11:24.565Z,31.55
2023-01-12T18:13:52.763Z,34.63
2023-01-12T18:16:20.726Z,29.35
2023-01-12T18:18:48.701Z,33.97
2023-01-12T18:21:20.856Z,25.40
2023-01-12T18:23:49.366Z,27.83
2023-01-12T18:26:20.442Z,39.80
2023-01-12T18:28:48.399Z,30.73
2023-01-12T18:31:18.277Z,37.47
2023-01-12T18:33:47.533Z,31.38
2023-01-12T18:36:19.177Z,26.23
2023-01-12T18:38:49.259Z,27.25
2023-01-12T18:41:35.271Z,32.10
2023-01-12T18:44:04.169Z,32.83
2023-01-12T18:46:46.395Z,34.70
2023-01-12T18:49:14.274Z,28.25
2023-01-12T18:52:00.963Z,29.30
2023-01-12T18:54:28.865Z,34.80
2023-01-12T18:56:56.638Z,25.93
2023-01-12T18:59:24.665Z,30.25
2023-01-12T19:01:52.594Z,26.48
2023-01-12T19:04:30.934Z,25.52
2023-01-12T19:07:01.504Z,33.85
2023-01-12T19:09:35.563Z,32.00
2023-01-12T19:12:03.814Z,33.08
2023-01-12T19:14:49.525Z,30.17
2023-01-12T19:17:30.556Z,27.67
2023-01-12T19:20:00.227Z,19.05
2023-01-12T19:22:47.006Z,27.63
2023-01-12T19:25:34.198Z,23.23
2023-01-12T19:28:19.833Z,27.08
2023-01-12T19:30:48.162Z,33.28
2023-01-12T19:33:17.139Z,27.08
2023-01-12T19:35:46.668Z,27.87
2023-01-12T19:38:16.067Z,28.10
2023-01-12T19:40:47.968Z,25.30
2023-01-12T19:43:20.840Z,24.98
2023-01-12T19:45:50.754Z,27.55
2023-01-12T19:48:20.927Z,27.33
2023-01-12T19:50:49.159Z,33.45
2023-01-12T19:53:20.415Z,20.65
2023-01-12T19:55:49.907Z,27.13
2023-01-12T19:58:17.973Z,28.48
2023-01-12T20:00:46.422Z,20.60
2023-01-12T20:03:15.594Z,36.97
2023-01-12T20:05:43.840Z,28.52
2023-01-12T20:08:12.260Z,28.95
2023-01-12T20:10:42.111Z,23.20
2023-01-12T20:13:13.430Z,27.70
2023-01-12T20:15:43.454Z,26.98
2023-01-12T20:18:13.754Z,31.50
2023-01-12T20:20:42.323Z,37.70
2023-01-12T20:23:10.113Z,35.20
2023-01-12T20:25:38.026Z,28.13
2023-01-12T20:28:07.844Z,28.45
2023-01-12T20:30:38.513Z,29.33
2023-01-12T20:33:08.152Z,31.50
2023-01-12T20:35:38.237Z,26.73
2023-01-12T20:38:22.801Z,30.00
2023-01-12T20:40:53.980Z,29.25
2023-01-12T20:43:23.440Z,26.60
2023-01-12T20:45:52.460Z,43.22
2023-01-12T20:48:20.373Z,30.15
2023-01-12T20:50:48.818Z,29.73
2023-01-12T20:53:17.084Z,24.80
2023-01-12T20:55:46.751Z,25.85
2023-01-12T20:58:19.682Z,25.02
2023-01-12T21:00:50.112Z,27.10
2023-01-12T21:03:18.114Z,23.97
2023-01-12T21:05:47.313Z,28.13
2023-01-12T21:08:16.790Z,26.83
2023-01-12T21:10:49.619Z,26.73
2023-01-12T21:13:17.502Z,18.40
2023-01-12T21:15:46.209Z,25.43
2023-01-12T21:18:15.577Z,26.13
2023-01-12T21:20:43.905Z,25.17
2023-01-12T21:23:11.907Z,19.73
2023-01-12T21:25:42.548Z,21.13
2023-01-12T21:28:10.554Z,28.63
2023-01-12T21:30:38.838Z,28.52
2023-01-12T21:33:06.860Z,26.52
2023-01-12T21:35:36.027Z,27.48
2023-01-12T21:38:04.306Z,25.35
2023-01-12T21:40:32.633Z,25.37
2023-01-12T21:43:09.673Z,23.45
2023-01-12T21:45:37.896Z,29.52
2023-01-12T21:48:06.856Z,29.48
2023-01-12T21:50:37.471Z,27.65
2023-01-12T21:53:06.600Z,23.83
2023-01-12T21:55:34.989Z,23.40
2023-01-12T21:58:02.985Z,26.20
2023-01-12T22:00:31.121Z,30.38
2023-01-12T22:02:59.451Z,26.98
2023-01-12T22:05:27.853Z,32.80
2023-01-12T22:07:57.758Z,29.17
2023-01-12T22:10:30.447Z,27.38
2023-01-12T22:13:00.469Z,29.23
2023-01-12T22:15:30.586Z,25.67
2023-01-12T22:17:58.421Z,34.80
2023-01-12T22:20:27.724Z,25.92
2023-01-12T22:22:57.331Z,26.58
2023-01-12T22:25:25.398Z,25.63
2023-01-12T22:27:53.300Z,24.83
2023-01-12T22:30:24.078Z,26.10
2023-01-12T22:32:54.912Z,18.23
2023-01-12T22:35:23.380Z,35.83
2023-01-12T22:37:51.293Z,22.23
2023-01-12T22:40:20.647Z,33.35
2023-01-12T22:43:05.848Z,28.37
2023-01-12T22:45:35.613Z,30.50
2023-01-12T22:48:04.523Z,26.00
2023-01-12T22:50:32.285Z,27.25
2023-01-12T22:53:00.170Z,23.50
2023-01-12T22:55:29.397Z,29.23
2023-01-12T22:57:57.208Z,26.05
2023-01-12T23:00:25.084Z,26.48
2023-01-12T23:03:02.662Z,34.47
2023-01-12T23:05:35.188Z,30.77
2023-01-12T23:08:03.735Z,21.40
2023-01-12T23:10:33.249Z,31.08
2023-01-12T23:13:15.530Z,49.40
2023-01-12T23:15:47.475Z,33.05
2023-01-12T23:18:16.551Z,26.85
2023-01-12T23:20:44.473Z,25.53
2023-01-12T23:23:12.289Z,37.58
2023-01-12T23:25:44.335Z,30.23
2023-01-12T23:28:13.705Z,25.00
2023-01-12T23:30:42.168Z,32.78
2023-01-12T23:33:10.203Z,31.27
2023-01-12T23:35:39.846Z,33.25
2023-01-12T23:38:08.475Z,30.90
2023-01-12T23:40:36.185Z,32.95
2023-01-12T23:43:05.424Z,33.50
2023-01-12T23:45:34.149Z,28.90
2023-01-12T23:48:01.961Z,35.15
2023-01-12T23:50:29.849Z,31.63
2023-01-12T23:52:57.556Z,31.05
2023-01-12T23:55:26.925Z,29.15
2023-01-12T23:57:54.805Z,31.17
